Airport View

Enter AWOS ICAO identifier for current METAR.

ex. KFNL

KROG 191858Z 25013G17KT 10SM SCT035 26/19 A2979 RMK AO2 SLP072 T02610189 PNO $

19 Jun 2019 19:37

Frequency: 134.375

Phone: 479-631-9196

Other Area AWOS: KVBT - KXNA - KASG - KSLG

TAF KROG 191740Z 1918/2018 20012KT P6SM SCT035 FM200000 VRB03KT P6SM BKN250 FM201000 VRB03KT 3SM BR SCT250